sensor_id;sensor_type;location;lat;lon;timestamp;P1;durP1;ratioP1;P2;durP2;ratioP2
33453;SDS011;39400;49.744;7.012;2023-04-24T00:00:23;2.33;;;1.33;;
33453;SDS011;39400;49.744;7.012;2023-04-24T00:02:48;1.35;;;0.80;;
33453;SDS011;39400;49.744;7.012;2023-04-24T00:05:14;4.68;;;2.10;;
33453;SDS011;39400;49.744;7.012;2023-04-24T00:07:40;1.60;;;0.60;;
33453;SDS011;39400;49.744;7.012;2023-04-24T00:10:06;0.38;;;0.38;;
33453;SDS011;39400;49.744;7.012;2023-04-24T00:12:33;2.15;;;0.57;;
33453;SDS011;39400;49.744;7.012;2023-04-24T00:14:58;1.88;;;0.93;;
33453;SDS011;39400;49.744;7.012;2023-04-24T00:17:24;1.02;;;0.47;;
33453;SDS011;39400;49.744;7.012;2023-04-24T00:19:49;3.60;;;1.05;;
33453;SDS011;39400;49.744;7.012;2023-04-24T00:22:14;0.68;;;0.57;;
33453;SDS011;39400;49.744;7.012;2023-04-24T00:24:40;0.70;;;0.60;;
33453;SDS011;39400;49.744;7.012;2023-04-24T00:27:05;2.47;;;0.70;;
33453;SDS011;39400;49.744;7.012;2023-04-24T00:29:31;1.08;;;0.60;;
33453;SDS011;39400;49.744;7.012;2023-04-24T00:31:56;0.63;;;0.50;;
33453;SDS011;39400;49.744;7.012;2023-04-24T00:34:22;1.52;;;0.80;;
33453;SDS011;39400;49.744;7.012;2023-04-24T00:36:47;1.05;;;0.65;;
33453;SDS011;39400;49.744;7.012;2023-04-24T00:39:12;1.15;;;0.80;;
33453;SDS011;39400;49.744;7.012;2023-04-24T00:41:38;1.20;;;0.70;;
33453;SDS011;39400;49.744;7.012;2023-04-24T00:44:03;1.65;;;1.10;;
33453;SDS011;39400;49.744;7.012;2023-04-24T00:46:28;3.47;;;1.30;;
33453;SDS011;39400;49.744;7.012;2023-04-24T00:48:54;1.88;;;0.88;;
33453;SDS011;39400;49.744;7.012;2023-04-24T00:51:21;1.20;;;0.95;;
33453;SDS011;39400;49.744;7.012;2023-04-24T00:53:46;2.70;;;1.20;;
33453;SDS011;39400;49.744;7.012;2023-04-24T00:56:12;1.85;;;1.20;;
33453;SDS011;39400;49.744;7.012;2023-04-24T00:58:38;5.00;;;1.20;;
33453;SDS011;39400;49.744;7.012;2023-04-24T01:01:04;2.75;;;1.02;;
33453;SDS011;39400;49.744;7.012;2023-04-24T01:03:29;1.70;;;0.98;;
33453;SDS011;39400;49.744;7.012;2023-04-24T01:05:56;1.95;;;1.15;;
33453;SDS011;39400;49.744;7.012;2023-04-24T01:08:23;2.65;;;1.27;;
33453;SDS011;39400;49.744;7.012;2023-04-24T01:10:49;2.42;;;1.30;;
33453;SDS011;39400;49.744;7.012;2023-04-24T01:13:18;1.95;;;1.70;;
33453;SDS011;39400;49.744;7.012;2023-04-24T01:15:44;4.72;;;1.90;;
33453;SDS011;39400;49.744;7.012;2023-04-24T01:18:10;2.83;;;2.33;;
33453;SDS011;39400;49.744;7.012;2023-04-24T01:20:36;5.13;;;2.25;;
33453;SDS011;39400;49.744;7.012;2023-04-24T01:23:04;3.20;;;2.17;;
33453;SDS011;39400;49.744;7.012;2023-04-24T01:25:30;5.03;;;2.15;;
33453;SDS011;39400;49.744;7.012;2023-04-24T01:27:56;2.88;;;2.42;;
33453;SDS011;39400;49.744;7.012;2023-04-24T01:30:21;4.63;;;2.50;;
33453;SDS011;39400;49.744;7.012;2023-04-24T01:32:47;5.80;;;2.58;;
33453;SDS011;39400;49.744;7.012;2023-04-24T01:35:13;5.43;;;3.50;;
33453;SDS011;39400;49.744;7.012;2023-04-24T01:37:38;4.78;;;3.55;;
33453;SDS011;39400;49.744;7.012;2023-04-24T01:40:07;3.97;;;2.85;;
33453;SDS011;39400;49.744;7.012;2023-04-24T01:42:51;5.00;;;2.95;;
33453;SDS011;39400;49.744;7.012;2023-04-24T01:45:36;5.82;;;3.47;;
33453;SDS011;39400;49.744;7.012;2023-04-24T01:48:03;4.68;;;3.65;;
33453;SDS011;39400;49.744;7.012;2023-04-24T01:50:28;4.45;;;3.35;;
33453;SDS011;39400;49.744;7.012;2023-04-24T01:52:54;7.50;;;4.43;;
33453;SDS011;39400;49.744;7.012;2023-04-24T01:55:19;6.15;;;3.63;;
33453;SDS011;39400;49.744;7.012;2023-04-24T01:57:44;5.80;;;3.70;;
33453;SDS011;39400;49.744;7.012;2023-04-24T02:00:10;7.50;;;4.13;;
33453;SDS011;39400;49.744;7.012;2023-04-24T02:02:39;5.60;;;4.30;;
33453;SDS011;39400;49.744;7.012;2023-04-24T02:05:05;5.30;;;4.03;;
33453;SDS011;39400;49.744;7.012;2023-04-24T02:07:35;7.07;;;4.20;;
33453;SDS011;39400;49.744;7.012;2023-04-24T02:10:00;7.93;;;4.65;;
33453;SDS011;39400;49.744;7.012;2023-04-24T02:12:25;5.82;;;4.40;;
33453;SDS011;39400;49.744;7.012;2023-04-24T02:14:51;7.20;;;4.03;;
33453;SDS011;39400;49.744;7.012;2023-04-24T02:17:16;7.43;;;4.07;;
33453;SDS011;39400;49.744;7.012;2023-04-24T02:19:42;8.00;;;4.55;;
33453;SDS011;39400;49.744;7.012;2023-04-24T02:22:08;6.28;;;4.45;;
33453;SDS011;39400;49.744;7.012;2023-04-24T02:24:34;8.05;;;4.70;;
33453;SDS011;39400;49.744;7.012;2023-04-24T02:26:59;5.47;;;4.13;;
33453;SDS011;39400;49.744;7.012;2023-04-24T02:29:25;6.47;;;4.47;;
33453;SDS011;39400;49.744;7.012;2023-04-24T02:31:50;6.60;;;4.68;;
33453;SDS011;39400;49.744;7.012;2023-04-24T02:34:16;8.93;;;4.20;;
33453;SDS011;39400;49.744;7.012;2023-04-24T02:36:41;7.43;;;4.80;;
33453;SDS011;39400;49.744;7.012;2023-04-24T02:39:07;8.10;;;4.40;;
33453;SDS011;39400;49.744;7.012;2023-04-24T02:41:32;7.80;;;4.47;;
33453;SDS011;39400;49.744;7.012;2023-04-24T02:43:58;6.57;;;4.95;;
33453;SDS011;39400;49.744;7.012;2023-04-24T02:46:23;11.10;;;5.43;;
33453;SDS011;39400;49.744;7.012;2023-04-24T02:48:49;7.97;;;5.30;;
33453;SDS011;39400;49.744;7.012;2023-04-24T02:51:14;6.70;;;4.97;;
33453;SDS011;39400;49.744;7.012;2023-04-24T02:53:39;8.45;;;6.13;;
33453;SDS011;39400;49.744;7.012;2023-04-24T02:56:05;6.55;;;4.68;;
33453;SDS011;39400;49.744;7.012;2023-04-24T02:58:30;8.82;;;4.55;;
33453;SDS011;39400;49.744;7.012;2023-04-24T03:00:55;8.93;;;4.60;;
33453;SDS011;39400;49.744;7.012;2023-04-24T03:03:21;7.25;;;4.28;;
33453;SDS011;39400;49.744;7.012;2023-04-24T03:05:47;7.07;;;4.72;;
33453;SDS011;39400;49.744;7.012;2023-04-24T03:08:12;8.65;;;4.43;;
33453;SDS011;39400;49.744;7.012;2023-04-24T03:10:37;6.82;;;4.68;;
33453;SDS011;39400;49.744;7.012;2023-04-24T03:13:03;5.68;;;4.30;;
33453;SDS011;39400;49.744;7.012;2023-04-24T03:15:28;5.82;;;4.50;;
33453;SDS011;39400;49.744;7.012;2023-04-24T03:17:53;11.30;;;4.50;;
33453;SDS011;39400;49.744;7.012;2023-04-24T03:20:19;7.50;;;4.50;;
33453;SDS011;39400;49.744;7.012;2023-04-24T03:22:44;6.55;;;4.60;;
33453;SDS011;39400;49.744;7.012;2023-04-24T03:25:10;7.93;;;5.18;;
33453;SDS011;39400;49.744;7.012;2023-04-24T03:27:36;7.25;;;5.55;;
33453;SDS011;39400;49.744;7.012;2023-04-24T03:30:13;8.57;;;5.35;;
33453;SDS011;39400;49.744;7.012;2023-04-24T03:32:50;8.80;;;6.15;;
33453;SDS011;39400;49.744;7.012;2023-04-24T03:35:20;8.48;;;6.07;;
33453;SDS011;39400;49.744;7.012;2023-04-24T03:37:46;11.35;;;6.18;;
33453;SDS011;39400;49.744;7.012;2023-04-24T03:40:37;9.52;;;6.32;;
33453;SDS011;39400;49.744;7.012;2023-04-24T03:43:09;8.93;;;5.75;;
33453;SDS011;39400;49.744;7.012;2023-04-24T03:45:36;11.88;;;7.28;;
33453;SDS011;39400;49.744;7.012;2023-04-24T03:48:01;8.70;;;5.97;;
33453;SDS011;39400;49.744;7.012;2023-04-24T03:50:27;10.25;;;6.57;;
33453;SDS011;39400;49.744;7.012;2023-04-24T03:52:52;9.45;;;7.40;;
33453;SDS011;39400;49.744;7.012;2023-04-24T03:55:29;12.80;;;8.35;;
33453;SDS011;39400;49.744;7.012;2023-04-24T03:57:54;14.25;;;8.43;;
33453;SDS011;39400;49.744;7.012;2023-04-24T04:00:21;13.63;;;8.93;;
33453;SDS011;39400;49.744;7.012;2023-04-24T04:02:53;14.25;;;9.43;;
33453;SDS011;39400;49.744;7.012;2023-04-24T04:05:19;18.23;;;10.40;;
33453;SDS011;39400;49.744;7.012;2023-04-24T04:07:44;14.73;;;9.85;;
33453;SDS011;39400;49.744;7.012;2023-04-24T04:10:10;15.77;;;10.30;;
33453;SDS011;39400;49.744;7.012;2023-04-24T04:12:36;14.15;;;11.30;;
33453;SDS011;39400;49.744;7.012;2023-04-24T04:15:01;12.20;;;8.95;;
33453;SDS011;39400;49.744;7.012;2023-04-24T04:17:27;12.52;;;9.82;;
33453;SDS011;39400;49.744;7.012;2023-04-24T04:19:53;13.90;;;9.73;;
33453;SDS011;39400;49.744;7.012;2023-04-24T04:22:18;15.48;;;10.50;;
33453;SDS011;39400;49.744;7.012;2023-04-24T04:24:47;13.30;;;10.40;;
33453;SDS011;39400;49.744;7.012;2023-04-24T04:27:13;16.05;;;9.38;;
33453;SDS011;39400;49.744;7.012;2023-04-24T04:29:48;13.98;;;10.02;;
33453;SDS011;39400;49.744;7.012;2023-04-24T04:32:14;15.68;;;10.65;;
33453;SDS011;39400;49.744;7.012;2023-04-24T04:34:40;14.30;;;10.23;;
33453;SDS011;39400;49.744;7.012;2023-04-24T04:37:07;20.17;;;11.35;;
33453;SDS011;39400;49.744;7.012;2023-04-24T04:39:49;14.05;;;9.70;;
33453;SDS011;39400;49.744;7.012;2023-04-24T04:42:18;12.55;;;8.75;;
33453;SDS011;39400;49.744;7.012;2023-04-24T04:44:44;10.50;;;7.40;;
33453;SDS011;39400;49.744;7.012;2023-04-24T04:47:15;9.40;;;7.25;;
33453;SDS011;39400;49.744;7.012;2023-04-24T04:49:42;8.45;;;6.38;;
33453;SDS011;39400;49.744;7.012;2023-04-24T04:52:14;7.78;;;5.38;;
33453;SDS011;39400;49.744;7.012;2023-04-24T04:54:40;6.15;;;4.00;;
33453;SDS011;39400;49.744;7.012;2023-04-24T04:57:05;5.47;;;3.78;;
33453;SDS011;39400;49.744;7.012;2023-04-24T04:59:31;8.88;;;4.03;;
33453;SDS011;39400;49.744;7.012;2023-04-24T05:02:02;5.30;;;3.65;;
33453;SDS011;39400;49.744;7.012;2023-04-24T05:04:28;5.28;;;3.63;;
33453;SDS011;39400;49.744;7.012;2023-04-24T05:06:53;5.40;;;3.03;;
33453;SDS011;39400;49.744;7.012;2023-04-24T05:09:20;5.72;;;3.30;;
33453;SDS011;39400;49.744;7.012;2023-04-24T05:11:51;5.13;;;3.28;;
33453;SDS011;39400;49.744;7.012;2023-04-24T05:14:16;7.95;;;4.25;;
33453;SDS011;39400;49.744;7.012;2023-04-24T05:16:42;5.47;;;3.60;;
33453;SDS011;39400;49.744;7.012;2023-04-24T05:19:09;6.40;;;4.18;;
33453;SDS011;39400;49.744;7.012;2023-04-24T05:21:38;8.20;;;5.55;;
33453;SDS011;39400;49.744;7.012;2023-04-24T05:24:03;7.35;;;5.05;;
33453;SDS011;39400;49.744;7.012;2023-04-24T05:26:42;8.85;;;5.20;;
33453;SDS011;39400;49.744;7.012;2023-04-24T05:29:08;6.75;;;4.57;;
33453;SDS011;39400;49.744;7.012;2023-04-24T05:31:34;7.82;;;5.38;;
33453;SDS011;39400;49.744;7.012;2023-04-24T05:33:59;7.13;;;5.15;;
33453;SDS011;39400;49.744;7.012;2023-04-24T05:36:25;12.40;;;5.68;;
33453;SDS011;39400;49.744;7.012;2023-04-24T05:38:51;7.47;;;5.68;;
33453;SDS011;39400;49.744;7.012;2023-04-24T05:41:17;8.32;;;5.78;;
33453;SDS011;39400;49.744;7.012;2023-04-24T05:43:42;8.68;;;6.53;;
33453;SDS011;39400;49.744;7.012;2023-04-24T05:46:07;8.05;;;6.10;;
33453;SDS011;39400;49.744;7.012;2023-04-24T05:48:33;11.50;;;6.57;;
33453;SDS011;39400;49.744;7.012;2023-04-24T05:51:01;8.73;;;6.53;;
33453;SDS011;39400;49.744;7.012;2023-04-24T05:53:27;10.18;;;6.88;;
33453;SDS011;39400;49.744;7.012;2023-04-24T05:55:52;10.32;;;6.35;;
33453;SDS011;39400;49.744;7.012;2023-04-24T05:58:18;8.95;;;6.38;;
33453;SDS011;39400;49.744;7.012;2023-04-24T06:00:45;11.05;;;6.28;;
33453;SDS011;39400;49.744;7.012;2023-04-24T06:03:11;12.00;;;6.93;;
33453;SDS011;39400;49.744;7.012;2023-04-24T06:05:36;10.30;;;6.75;;
33453;SDS011;39400;49.744;7.012;2023-04-24T06:08:02;10.15;;;6.43;;
33453;SDS011;39400;49.744;7.012;2023-04-24T06:10:32;9.13;;;5.88;;
33453;SDS011;39400;49.744;7.012;2023-04-24T06:12:58;12.15;;;6.55;;
33453;SDS011;39400;49.744;7.012;2023-04-24T06:15:23;6.70;;;5.13;;
33453;SDS011;39400;49.744;7.012;2023-04-24T06:17:56;8.90;;;5.43;;
33453;SDS011;39400;49.744;7.012;2023-04-24T06:20:21;7.70;;;4.93;;
33453;SDS011;39400;49.744;7.012;2023-04-24T06:22:47;11.98;;;6.10;;
33453;SDS011;39400;49.744;7.012;2023-04-24T06:25:12;11.50;;;5.30;;
33453;SDS011;39400;49.744;7.012;2023-04-24T06:27:38;11.32;;;6.07;;
33453;SDS011;39400;49.744;7.012;2023-04-24T06:30:03;8.18;;;5.80;;
33453;SDS011;39400;49.744;7.012;2023-04-24T06:32:29;10.50;;;6.32;;
33453;SDS011;39400;49.744;7.012;2023-04-24T06:34:54;13.57;;;5.82;;
33453;SDS011;39400;49.744;7.012;2023-04-24T06:37:20;9.90;;;5.90;;
33453;SDS011;39400;49.744;7.012;2023-04-24T06:39:46;9.27;;;5.68;;
33453;SDS011;39400;49.744;7.012;2023-04-24T06:42:11;8.57;;;6.07;;
33453;SDS011;39400;49.744;7.012;2023-04-24T06:44:36;9.90;;;6.03;;
33453;SDS011;39400;49.744;7.012;2023-04-24T06:47:02;9.52;;;7.20;;
33453;SDS011;39400;49.744;7.012;2023-04-24T06:49:28;24.65;;;16.92;;
33453;SDS011;39400;49.744;7.012;2023-04-24T06:51:53;9.95;;;7.03;;
33453;SDS011;39400;49.744;7.012;2023-04-24T06:54:18;10.48;;;7.00;;
33453;SDS011;39400;49.744;7.012;2023-04-24T06:56:43;11.73;;;6.05;;
33453;SDS011;39400;49.744;7.012;2023-04-24T06:59:09;11.38;;;7.22;;
33453;SDS011;39400;49.744;7.012;2023-04-24T07:01:34;13.75;;;7.82;;
33453;SDS011;39400;49.744;7.012;2023-04-24T07:03:59;8.93;;;6.60;;
33453;SDS011;39400;49.744;7.012;2023-04-24T07:06:25;11.88;;;6.68;;
33453;SDS011;39400;49.744;7.012;2023-04-24T07:08:50;10.52;;;5.75;;
33453;SDS011;39400;49.744;7.012;2023-04-24T07:11:15;12.32;;;6.80;;
33453;SDS011;39400;49.744;7.012;2023-04-24T07:13:41;8.10;;;5.53;;
33453;SDS011;39400;49.744;7.012;2023-04-24T07:16:06;14.70;;;6.45;;
33453;SDS011;39400;49.744;7.012;2023-04-24T07:18:32;9.55;;;6.43;;
33453;SDS011;39400;49.744;7.012;2023-04-24T07:20:58;12.18;;;7.00;;
33453;SDS011;39400;49.744;7.012;2023-04-24T07:23:23;7.70;;;5.72;;
33453;SDS011;39400;49.744;7.012;2023-04-24T07:25:48;14.48;;;7.18;;
33453;SDS011;39400;49.744;7.012;2023-04-24T07:28:13;10.52;;;6.93;;
33453;SDS011;39400;49.744;7.012;2023-04-24T07:30:39;8.98;;;6.38;;
33453;SDS011;39400;49.744;7.012;2023-04-24T07:33:04;11.18;;;6.63;;
33453;SDS011;39400;49.744;7.012;2023-04-24T07:35:29;10.65;;;6.70;;
33453;SDS011;39400;49.744;7.012;2023-04-24T07:37:55;10.98;;;7.63;;
33453;SDS011;39400;49.744;7.012;2023-04-24T07:40:21;11.40;;;6.68;;
33453;SDS011;39400;49.744;7.012;2023-04-24T07:42:47;16.40;;;8.18;;
33453;SDS011;39400;49.744;7.012;2023-04-24T07:45:12;10.43;;;7.10;;
33453;SDS011;39400;49.744;7.012;2023-04-24T07:47:37;11.05;;;6.82;;
33453;SDS011;39400;49.744;7.012;2023-04-24T07:50:03;12.40;;;8.10;;
33453;SDS011;39400;49.744;7.012;2023-04-24T07:52:28;17.50;;;9.30;;
33453;SDS011;39400;49.744;7.012;2023-04-24T07:54:54;16.08;;;9.98;;
33453;SDS011;39400;49.744;7.012;2023-04-24T07:57:20;17.90;;;10.23;;
33453;SDS011;39400;49.744;7.012;2023-04-24T07:59:45;11.15;;;7.35;;
33453;SDS011;39400;49.744;7.012;2023-04-24T08:02:10;14.70;;;8.45;;
33453;SDS011;39400;49.744;7.012;2023-04-24T08:04:35;11.52;;;6.57;;
33453;SDS011;39400;49.744;7.012;2023-04-24T08:07:01;9.30;;;7.25;;
33453;SDS011;39400;49.744;7.012;2023-04-24T08:09:26;7.75;;;5.63;;
33453;SDS011;39400;49.744;7.012;2023-04-24T08:11:51;12.45;;;7.97;;
33453;SDS011;39400;49.744;7.012;2023-04-24T08:14:17;8.70;;;5.35;;
33453;SDS011;39400;49.744;7.012;2023-04-24T08:16:42;6.50;;;5.13;;
33453;SDS011;39400;49.744;7.012;2023-04-24T08:19:07;7.47;;;4.63;;
33453;SDS011;39400;49.744;7.012;2023-04-24T08:21:33;7.07;;;4.32;;
33453;SDS011;39400;49.744;7.012;2023-04-24T08:23:58;6.55;;;4.90;;
33453;SDS011;39400;49.744;7.012;2023-04-24T08:26:23;8.52;;;5.40;;
33453;SDS011;39400;49.744;7.012;2023-04-24T08:28:49;9.10;;;5.32;;
33453;SDS011;39400;49.744;7.012;2023-04-24T08:31:14;7.47;;;5.40;;
33453;SDS011;39400;49.744;7.012;2023-04-24T08:33:39;9.77;;;6.60;;
33453;SDS011;39400;49.744;7.012;2023-04-24T08:36:05;10.13;;;6.07;;
33453;SDS011;39400;49.744;7.012;2023-04-24T08:38:30;10.05;;;6.72;;
33453;SDS011;39400;49.744;7.012;2023-04-24T08:40:57;8.90;;;6.68;;
33453;SDS011;39400;49.744;7.012;2023-04-24T08:43:23;10.35;;;6.57;;
33453;SDS011;39400;49.744;7.012;2023-04-24T08:45:50;12.15;;;6.32;;
33453;SDS011;39400;49.744;7.012;2023-04-24T08:48:15;9.85;;;5.75;;
33453;SDS011;39400;49.744;7.012;2023-04-24T08:50:42;11.55;;;6.90;;
33453;SDS011;39400;49.744;7.012;2023-04-24T08:53:08;8.65;;;5.80;;
33453;SDS011;39400;49.744;7.012;2023-04-24T08:55:34;14.60;;;7.40;;
33453;SDS011;39400;49.744;7.012;2023-04-24T08:57:59;10.20;;;6.55;;
33453;SDS011;39400;49.744;7.012;2023-04-24T09:00:26;8.93;;;6.30;;
33453;SDS011;39400;49.744;7.012;2023-04-24T09:02:53;10.18;;;6.18;;
33453;SDS011;39400;49.744;7.012;2023-04-24T09:05:18;8.27;;;5.70;;
33453;SDS011;39400;49.744;7.012;2023-04-24T09:07:49;10.40;;;6.97;;
33453;SDS011;39400;49.744;7.012;2023-04-24T09:10:19;12.60;;;6.72;;
33453;SDS011;39400;49.744;7.012;2023-04-24T09:12:45;12.25;;;6.88;;
33453;SDS011;39400;49.744;7.012;2023-04-24T09:15:11;8.20;;;5.13;;
33453;SDS011;39400;49.744;7.012;2023-04-24T09:17:37;7.93;;;5.10;;
33453;SDS011;39400;49.744;7.012;2023-04-24T09:20:03;6.90;;;4.75;;
33453;SDS011;39400;49.744;7.012;2023-04-24T09:22:29;19.80;;;13.02;;
33453;SDS011;39400;49.744;7.012;2023-04-24T09:25:02;8.40;;;5.60;;
33453;SDS011;39400;49.744;7.012;2023-04-24T09:27:28;8.50;;;6.25;;
33453;SDS011;39400;49.744;7.012;2023-04-24T09:29:54;8.40;;;6.22;;
33453;SDS011;39400;49.744;7.012;2023-04-24T09:32:21;9.90;;;6.70;;
33453;SDS011;39400;49.744;7.012;2023-04-24T09:34:47;9.77;;;6.15;;
33453;SDS011;39400;49.744;7.012;2023-04-24T09:37:26;16.85;;;8.18;;
33453;SDS011;39400;49.744;7.012;2023-04-24T09:40:11;11.68;;;7.60;;
33453;SDS011;39400;49.744;7.012;2023-04-24T09:42:39;12.35;;;7.63;;
33453;SDS011;39400;49.744;7.012;2023-04-24T09:45:08;11.55;;;8.45;;
33453;SDS011;39400;49.744;7.012;2023-04-24T09:50:09;11.68;;;8.38;;
33453;SDS011;39400;49.744;7.012;2023-04-24T09:52:36;12.80;;;9.10;;
33453;SDS011;39400;49.744;7.012;2023-04-24T09:55:10;12.30;;;7.85;;
33453;SDS011;39400;49.744;7.012;2023-04-24T09:57:40;12.63;;;7.70;;
33453;SDS011;39400;49.744;7.012;2023-04-24T10:00:12;10.88;;;8.13;;
33453;SDS011;39400;49.744;7.012;2023-04-24T10:02:38;12.35;;;8.55;;
33453;SDS011;39400;49.744;7.012;2023-04-24T10:05:04;14.00;;;8.25;;
33453;SDS011;39400;49.744;7.012;2023-04-24T10:07:29;17.33;;;8.65;;
33453;SDS011;39400;49.744;7.012;2023-04-24T10:09:57;12.77;;;8.55;;
33453;SDS011;39400;49.744;7.012;2023-04-24T10:12:23;11.13;;;8.07;;
33453;SDS011;39400;49.744;7.012;2023-04-24T10:14:50;16.75;;;9.25;;
33453;SDS011;39400;49.744;7.012;2023-04-24T10:17:15;10.60;;;7.55;;
33453;SDS011;39400;49.744;7.012;2023-04-24T10:19:41;13.43;;;7.97;;
33453;SDS011;39400;49.744;7.012;2023-04-24T10:22:08;12.35;;;9.60;;
33453;SDS011;39400;49.744;7.012;2023-04-24T10:24:33;13.38;;;8.50;;
33453;SDS011;39400;49.744;7.012;2023-04-24T10:26:59;15.82;;;7.95;;
33453;SDS011;39400;49.744;7.012;2023-04-24T10:29:24;13.82;;;9.38;;
33453;SDS011;39400;49.744;7.012;2023-04-24T10:31:50;14.77;;;9.75;;
33453;SDS011;39400;49.744;7.012;2023-04-24T10:34:16;16.95;;;8.77;;
33453;SDS011;39400;49.744;7.012;2023-04-24T10:36:47;15.27;;;8.63;;
33453;SDS011;39400;49.744;7.012;2023-04-24T10:39:16;14.13;;;8.43;;
33453;SDS011;39400;49.744;7.012;2023-04-24T10:41:43;17.23;;;8.05;;
33453;SDS011;39400;49.744;7.012;2023-04-24T10:44:10;14.20;;;8.30;;
33453;SDS011;39400;49.744;7.012;2023-04-24T10:46:38;11.77;;;8.25;;
33453;SDS011;39400;49.744;7.012;2023-04-24T10:49:06;13.38;;;8.23;;
33453;SDS011;39400;49.744;7.012;2023-04-24T10:54:24;14.23;;;7.60;;
33453;SDS011;39400;49.744;7.012;2023-04-24T10:56:51;15.40;;;7.32;;
33453;SDS011;39400;49.744;7.012;2023-04-24T10:59:23;16.90;;;8.55;;
33453;SDS011;39400;49.744;7.012;2023-04-24T11:01:53;13.02;;;8.07;;
33453;SDS011;39400;49.744;7.012;2023-04-24T11:04:28;13.05;;;8.80;;
33453;SDS011;39400;49.744;7.012;2023-04-24T11:06:55;15.80;;;9.85;;
33453;SDS011;39400;49.744;7.012;2023-04-24T11:09:20;19.02;;;9.70;;
33453;SDS011;39400;49.744;7.012;2023-04-24T11:11:46;37.03;;;19.77;;
33453;SDS011;39400;49.744;7.012;2023-04-24T11:14:15;17.30;;;10.02;;
33453;SDS011;39400;49.744;7.012;2023-04-24T11:16:55;22.13;;;12.63;;
33453;SDS011;39400;49.744;7.012;2023-04-24T11:19:24;15.02;;;8.50;;
33453;SDS011;39400;49.744;7.012;2023-04-24T11:22:03;18.58;;;10.40;;
33453;SDS011;39400;49.744;7.012;2023-04-24T11:24:39;20.77;;;11.48;;
33453;SDS011;39400;49.744;7.012;2023-04-24T11:29:41;13.50;;;8.45;;
33453;SDS011;39400;49.744;7.012;2023-04-24T11:35:00;15.63;;;9.32;;
33453;SDS011;39400;49.744;7.012;2023-04-24T11:38:00;13.90;;;9.43;;
33453;SDS011;39400;49.744;7.012;2023-04-24T11:40:19;14.35;;;7.70;;
33453;SDS011;39400;49.744;7.012;2023-04-24T11:42:46;15.73;;;9.15;;
33453;SDS011;39400;49.744;7.012;2023-04-24T11:45:16;10.15;;;5.97;;
33453;SDS011;39400;49.744;7.012;2023-04-24T11:48:08;14.50;;;9.00;;
33453;SDS011;39400;49.744;7.012;2023-04-24T11:50:34;10.95;;;7.35;;
33453;SDS011;39400;49.744;7.012;2023-04-24T11:52:59;18.17;;;9.48;;
33453;SDS011;39400;49.744;7.012;2023-04-24T11:55:25;15.88;;;9.23;;
33453;SDS011;39400;49.744;7.012;2023-04-24T11:57:59;17.38;;;8.32;;
33453;SDS011;39400;49.744;7.012;2023-04-24T12:00:28;8.07;;;5.88;;
33453;SDS011;39400;49.744;7.012;2023-04-24T12:03:06;10.65;;;5.88;;
33453;SDS011;39400;49.744;7.012;2023-04-24T12:05:32;15.50;;;8.60;;
33453;SDS011;39400;49.744;7.012;2023-04-24T12:07:58;10.48;;;5.10;;
33453;SDS011;39400;49.744;7.012;2023-04-24T12:10:24;8.90;;;5.82;;
33453;SDS011;39400;49.744;7.012;2023-04-24T12:12:51;12.38;;;6.85;;
33453;SDS011;39400;49.744;7.012;2023-04-24T12:15:18;11.75;;;6.32;;
33453;SDS011;39400;49.744;7.012;2023-04-24T12:17:45;12.15;;;6.65;;
33453;SDS011;39400;49.744;7.012;2023-04-24T12:20:11;11.65;;;6.53;;
33453;SDS011;39400;49.744;7.012;2023-04-24T12:22:47;9.25;;;4.85;;
33453;SDS011;39400;49.744;7.012;2023-04-24T12:25:13;10.63;;;6.43;;
33453;SDS011;39400;49.744;7.012;2023-04-24T12:27:46;8.98;;;5.93;;
33453;SDS011;39400;49.744;7.012;2023-04-24T12:30:17;11.15;;;6.18;;
33453;SDS011;39400;49.744;7.012;2023-04-24T12:32:43;12.10;;;5.93;;
33453;SDS011;39400;49.744;7.012;2023-04-24T12:35:10;14.48;;;8.38;;
33453;SDS011;39400;49.744;7.012;2023-04-24T12:37:35;11.70;;;6.78;;
33453;SDS011;39400;49.744;7.012;2023-04-24T12:40:02;9.00;;;6.53;;
33453;SDS011;39400;49.744;7.012;2023-04-24T12:42:28;12.60;;;8.10;;
33453;SDS011;39400;49.744;7.012;2023-04-24T12:45:04;14.73;;;7.20;;
33453;SDS011;39400;49.744;7.012;2023-04-24T12:47:31;14.27;;;7.75;;
33453;SDS011;39400;49.744;7.012;2023-04-24T12:49:57;17.77;;;7.97;;
33453;SDS011;39400;49.744;7.012;2023-04-24T12:52:23;14.25;;;8.45;;
33453;SDS011;39400;49.744;7.012;2023-04-24T12:54:50;14.23;;;7.85;;
33453;SDS011;39400;49.744;7.012;2023-04-24T12:57:15;20.05;;;10.40;;
33453;SDS011;39400;49.744;7.012;2023-04-24T12:59:41;13.52;;;7.38;;
33453;SDS011;39400;49.744;7.012;2023-04-24T13:02:06;13.98;;;8.68;;
33453;SDS011;39400;49.744;7.012;2023-04-24T13:04:31;10.65;;;7.00;;
33453;SDS011;39400;49.744;7.012;2023-04-24T13:06:57;9.48;;;6.40;;
33453;SDS011;39400;49.744;7.012;2023-04-24T13:09:22;18.58;;;7.80;;
33453;SDS011;39400;49.744;7.012;2023-04-24T13:11:49;12.30;;;8.32;;
33453;SDS011;39400;49.744;7.012;2023-04-24T13:14:15;16.30;;;7.82;;
33453;SDS011;39400;49.744;7.012;2023-04-24T13:16:40;10.57;;;7.72;;
33453;SDS011;39400;49.744;7.012;2023-04-24T13:19:06;11.65;;;8.00;;
33453;SDS011;39400;49.744;7.012;2023-04-24T13:21:31;11.60;;;6.90;;
33453;SDS011;39400;49.744;7.012;2023-04-24T13:23:56;9.82;;;6.82;;
33453;SDS011;39400;49.744;7.012;2023-04-24T13:26:22;11.55;;;7.35;;
33453;SDS011;39400;49.744;7.012;2023-04-24T13:28:48;13.18;;;6.85;;
33453;SDS011;39400;49.744;7.012;2023-04-24T13:31:13;14.35;;;8.00;;
33453;SDS011;39400;49.744;7.012;2023-04-24T13:33:38;13.35;;;7.03;;
33453;SDS011;39400;49.744;7.012;2023-04-24T13:36:04;14.40;;;7.90;;
33453;SDS011;39400;49.744;7.012;2023-04-24T13:38:29;10.52;;;7.15;;
33453;SDS011;39400;49.744;7.012;2023-04-24T13:40:54;9.85;;;6.45;;
33453;SDS011;39400;49.744;7.012;2023-04-24T13:43:20;13.55;;;7.78;;
33453;SDS011;39400;49.744;7.012;2023-04-24T13:45:45;11.40;;;7.22;;
33453;SDS011;39400;49.744;7.012;2023-04-24T13:48:10;13.93;;;7.70;;
33453;SDS011;39400;49.744;7.012;2023-04-24T13:50:35;17.02;;;9.75;;
33453;SDS011;39400;49.744;7.012;2023-04-24T13:53:01;11.48;;;6.80;;
33453;SDS011;39400;49.744;7.012;2023-04-24T13:55:27;12.70;;;7.18;;
33453;SDS011;39400;49.744;7.012;2023-04-24T13:57:52;12.57;;;7.00;;
33453;SDS011;39400;49.744;7.012;2023-04-24T14:00:18;13.70;;;7.30;;
33453;SDS011;39400;49.744;7.012;2023-04-24T14:02:43;16.83;;;6.82;;
33453;SDS011;39400;49.744;7.012;2023-04-24T14:05:08;10.95;;;6.95;;
33453;SDS011;39400;49.744;7.012;2023-04-24T14:07:34;11.65;;;5.90;;
33453;SDS011;39400;49.744;7.012;2023-04-24T14:09:59;14.90;;;7.22;;
33453;SDS011;39400;49.744;7.012;2023-04-24T14:12:24;13.43;;;5.75;;
33453;SDS011;39400;49.744;7.012;2023-04-24T14:14:50;9.50;;;6.28;;
33453;SDS011;39400;49.744;7.012;2023-04-24T14:17:15;8.75;;;5.88;;
33453;SDS011;39400;49.744;7.012;2023-04-24T14:19:40;9.23;;;6.30;;
33453;SDS011;39400;49.744;7.012;2023-04-24T14:22:06;10.18;;;6.32;;
33453;SDS011;39400;49.744;7.012;2023-04-24T14:24:31;8.13;;;5.15;;
33453;SDS011;39400;49.744;7.012;2023-04-24T14:26:57;8.50;;;5.10;;
33453;SDS011;39400;49.744;7.012;2023-04-24T14:29:22;10.05;;;6.38;;
33453;SDS011;39400;49.744;7.012;2023-04-24T14:31:47;7.47;;;4.65;;
33453;SDS011;39400;49.744;7.012;2023-04-24T14:34:13;8.82;;;5.60;;
33453;SDS011;39400;49.744;7.012;2023-04-24T14:36:39;7.80;;;5.00;;
33453;SDS011;39400;49.744;7.012;2023-04-24T14:39:04;9.95;;;5.45;;
33453;SDS011;39400;49.744;7.012;2023-04-24T14:41:29;11.63;;;5.75;;
33453;SDS011;39400;49.744;7.012;2023-04-24T14:43:55;8.18;;;5.03;;
33453;SDS011;39400;49.744;7.012;2023-04-24T14:46:20;8.40;;;5.22;;
33453;SDS011;39400;49.744;7.012;2023-04-24T14:48:45;7.32;;;5.25;;